sensor_id;sensor_type;location;lat;lon;timestamp;pressure;altitude;pressure_sealevel;temperature;humidity
76201;BME280;64981;52.930;9.266;2024-02-04T00:02:23;101686.81;;;7.39;77.12
76201;BME280;64981;52.930;9.266;2024-02-04T00:04:51;101687.13;;;7.46;76.76
76201;BME280;64981;52.930;9.266;2024-02-04T00:07:16;101666.34;;;7.32;77.41
76201;BME280;64981;52.930;9.266;2024-02-04T00:09:42;101666.25;;;7.33;76.93
76201;BME280;64981;52.930;9.266;2024-02-04T00:12:10;101669.81;;;7.21;78.08
76201;BME280;64981;52.930;9.266;2024-02-04T00:14:35;101661.22;;;7.30;78.05
76201;BME280;64981;52.930;9.266;2024-02-04T00:17:01;101659.06;;;7.24;78.41
76201;BME280;64981;52.930;9.266;2024-02-04T00:19:27;101659.56;;;7.29;78.37
76201;BME280;64981;52.930;9.266;2024-02-04T00:21:52;101640.09;;;7.21;78.15
76201;BME280;64981;52.930;9.266;2024-02-04T00:24:18;101639.13;;;7.33;78.17
76201;BME280;64981;52.930;9.266;2024-02-04T00:26:45;101636.25;;;7.36;78.16
76201;BME280;64981;52.930;9.266;2024-02-04T00:29:10;101645.31;;;7.43;77.91
76201;BME280;64981;52.930;9.266;2024-02-04T00:31:36;101658.00;;;7.49;77.59
76201;BME280;64981;52.930;9.266;2024-02-04T00:34:02;101651.56;;;7.42;78.01
76201;BME280;64981;52.930;9.266;2024-02-04T00:36:27;101652.25;;;7.44;77.86
76201;BME280;64981;52.930;9.266;2024-02-04T00:38:53;101637.22;;;7.35;78.14
76201;BME280;64981;52.930;9.266;2024-02-04T00:41:18;101630.63;;;7.40;77.85
76201;BME280;64981;52.930;9.266;2024-02-04T00:43:44;101641.16;;;7.29;78.76
76201;BME280;64981;52.930;9.266;2024-02-04T00:46:09;101637.69;;;7.40;78.49
76201;BME280;64981;52.930;9.266;2024-02-04T00:48:36;101630.75;;;7.28;79.03
76201;BME280;64981;52.930;9.266;2024-02-04T00:51:03;101630.75;;;7.28;79.33
76201;BME280;64981;52.930;9.266;2024-02-04T00:53:29;101624.31;;;7.32;79.32
76201;BME280;64981;52.930;9.266;2024-02-04T00:56:06;101623.38;;;7.33;79.23
76201;BME280;64981;52.930;9.266;2024-02-04T00:58:32;101616.91;;;7.37;79.24
76201;BME280;64981;52.930;9.266;2024-02-04T01:00:57;101621.22;;;7.38;79.28
76201;BME280;64981;52.930;9.266;2024-02-04T01:03:23;101628.38;;;7.36;79.10
76201;BME280;64981;52.930;9.266;2024-02-04T01:05:50;101611.53;;;7.27;79.33
76201;BME280;64981;52.930;9.266;2024-02-04T01:08:16;101619.63;;;7.24;79.70
76201;BME280;64981;52.930;9.266;2024-02-04T01:10:42;101622.53;;;7.32;79.55
76201;BME280;64981;52.930;9.266;2024-02-04T01:13:07;101628.38;;;7.36;79.28
76201;BME280;64981;52.930;9.266;2024-02-04T01:15:33;101628.50;;;7.23;79.78
76201;BME280;64981;52.930;9.266;2024-02-04T01:17:59;101625.75;;;7.14;80.36
76201;BME280;64981;52.930;9.266;2024-02-04T01:20:25;101626.81;;;7.11;80.61
76201;BME280;64981;52.930;9.266;2024-02-04T01:22:51;101625.84;;;7.12;80.63
76201;BME280;64981;52.930;9.266;2024-02-04T01:25:16;101635.41;;;7.13;80.81
76201;BME280;64981;52.930;9.266;2024-02-04T01:27:42;101628.97;;;7.17;80.40
76201;BME280;64981;52.930;9.266;2024-02-04T01:30:08;101635.41;;;7.13;80.79
76201;BME280;64981;52.930;9.266;2024-02-04T01:32:33;101636.81;;;7.06;81.49
76201;BME280;64981;52.930;9.266;2024-02-04T01:34:59;101639.34;;;7.07;81.77
76201;BME280;64981;52.930;9.266;2024-02-04T01:37:24;101620.22;;;6.94;82.27
76201;BME280;64981;52.930;9.266;2024-02-04T01:39:50;101622.03;;;7.05;82.28
76201;BME280;64981;52.930;9.266;2024-02-04T01:42:15;101621.31;;;6.92;82.73
76201;BME280;64981;52.930;9.266;2024-02-04T01:44:41;101630.97;;;7.02;82.79
76201;BME280;64981;52.930;9.266;2024-02-04T01:47:07;101626.09;;;6.98;82.33
76201;BME280;64981;52.930;9.266;2024-02-04T01:49:33;101629.56;;;6.98;82.65
76201;BME280;64981;52.930;9.266;2024-02-04T01:52:00;101611.97;;;6.99;82.43
76201;BME280;64981;52.930;9.266;2024-02-04T01:54:27;101613.66;;;7.00;82.01
76201;BME280;64981;52.930;9.266;2024-02-04T01:56:53;101614.94;;;6.83;83.53
76201;BME280;64981;52.930;9.266;2024-02-04T01:59:23;101629.19;;;6.92;83.40
76201;BME280;64981;52.930;9.266;2024-02-04T02:01:59;101615.91;;;6.93;83.46
76201;BME280;64981;52.930;9.266;2024-02-04T02:04:25;101616.78;;;7.05;83.09
76201;BME280;64981;52.930;9.266;2024-02-04T02:06:53;101600.41;;;6.79;83.91
76201;BME280;64981;52.930;9.266;2024-02-04T02:09:19;101606.28;;;7.05;83.40
76201;BME280;64981;52.930;9.266;2024-02-04T02:11:47;101586.56;;;6.99;83.44
76201;BME280;64981;52.930;9.266;2024-02-04T02:14:23;101590.75;;;7.02;83.66
76201;BME280;64981;52.930;9.266;2024-02-04T02:16:49;101599.81;;;7.09;83.52
76201;BME280;64981;52.930;9.266;2024-02-04T02:25:03;101595.88;;;7.03;83.38
76201;BME280;64981;52.930;9.266;2024-02-04T02:27:30;101595.97;;;6.91;83.78
76201;BME280;64981;52.930;9.266;2024-02-04T02:29:56;101599.56;;;7.12;82.98
76201;BME280;64981;52.930;9.266;2024-02-04T02:32:22;101595.53;;;7.19;82.98
76201;BME280;64981;52.930;9.266;2024-02-04T02:34:49;101593.25;;;7.15;83.12
76201;BME280;64981;52.930;9.266;2024-02-04T02:37:29;101591.56;;;7.02;83.43
76201;BME280;64981;52.930;9.266;2024-02-04T02:40:05;101576.78;;;7.01;83.37
76201;BME280;64981;52.930;9.266;2024-02-04T02:42:32;101574.75;;;7.16;82.65
76201;BME280;64981;52.930;9.266;2024-02-04T02:44:59;101579.53;;;7.22;82.41
76201;BME280;64981;52.930;9.266;2024-02-04T02:47:27;101569.38;;;7.06;82.78
76201;BME280;64981;52.930;9.266;2024-02-04T02:49:54;101565.66;;;7.09;82.75
76201;BME280;64981;52.930;9.266;2024-02-04T02:52:21;101580.59;;;7.20;82.09
76201;BME280;64981;52.930;9.266;2024-02-04T02:54:46;101580.97;;;7.04;82.89
76201;BME280;64981;52.930;9.266;2024-02-04T02:57:12;101581.41;;;6.87;83.64
76201;BME280;64981;52.930;9.266;2024-02-04T02:59:38;101567.69;;;6.83;83.55
76201;BME280;64981;52.930;9.266;2024-02-04T03:02:03;101570.09;;;6.97;82.70
76201;BME280;64981;52.930;9.266;2024-02-04T03:04:29;101567.09;;;6.91;82.80
76201;BME280;64981;52.930;9.266;2024-02-04T03:06:54;101555.88;;;7.00;81.91
76201;BME280;64981;52.930;9.266;2024-02-04T03:09:20;101562.41;;;6.83;82.83
76201;BME280;64981;52.930;9.266;2024-02-04T03:11:46;101556.84;;;6.88;82.51
76201;BME280;64981;52.930;9.266;2024-02-04T03:14:13;101540.00;;;6.79;82.82
76201;BME280;64981;52.930;9.266;2024-02-04T03:16:39;101541.41;;;6.83;82.22
76201;BME280;64981;52.930;9.266;2024-02-04T03:19:05;101535.34;;;6.83;82.07
76201;BME280;64981;52.930;9.266;2024-02-04T03:21:31;101537.84;;;6.84;81.92
76201;BME280;64981;52.930;9.266;2024-02-04T03:23:57;101538.09;;;6.81;82.11
76201;BME280;64981;52.930;9.266;2024-02-04T03:26:22;101550.13;;;6.84;82.48
76201;BME280;64981;52.930;9.266;2024-02-04T03:28:48;101545.59;;;6.97;81.74
76201;BME280;64981;52.930;9.266;2024-02-04T03:31:23;101537.03;;;6.95;81.77
76201;BME280;64981;52.930;9.266;2024-02-04T03:33:50;101533.16;;;6.77;82.16
76201;BME280;64981;52.930;9.266;2024-02-04T03:36:19;101535.06;;;6.75;82.23
76201;BME280;64981;52.930;9.266;2024-02-04T03:38:45;101537.13;;;6.82;82.05
76201;BME280;64981;52.930;9.266;2024-02-04T03:41:11;101526.25;;;6.87;81.92
76201;BME280;64981;52.930;9.266;2024-02-04T03:43:37;101528.88;;;6.87;81.80
76201;BME280;64981;52.930;9.266;2024-02-04T03:46:03;101530.81;;;6.96;81.13
76201;BME280;64981;52.930;9.266;2024-02-04T03:48:29;101524.72;;;6.84;81.84
76201;BME280;64981;52.930;9.266;2024-02-04T03:50:54;101532.72;;;6.94;81.53
76201;BME280;64981;52.930;9.266;2024-02-04T03:53:20;101522.94;;;6.85;81.58
76201;BME280;64981;52.930;9.266;2024-02-04T03:55:48;101540.13;;;6.89;81.43
76201;BME280;64981;52.930;9.266;2024-02-04T03:58:14;101541.16;;;6.75;82.24
76201;BME280;64981;52.930;9.266;2024-02-04T04:00:40;101537.69;;;6.75;82.40
76201;BME280;64981;52.930;9.266;2024-02-04T04:03:05;101538.88;;;6.71;82.43
76201;BME280;64981;52.930;9.266;2024-02-04T04:05:31;101533.50;;;6.61;82.33
76201;BME280;64981;52.930;9.266;2024-02-04T04:07:57;101539.09;;;6.68;82.11
76201;BME280;64981;52.930;9.266;2024-02-04T04:10:22;101539.34;;;6.65;81.90
76201;BME280;64981;52.930;9.266;2024-02-04T04:12:48;101539.47;;;6.63;81.72
76201;BME280;64981;52.930;9.266;2024-02-04T04:15:14;101552.13;;;6.69;81.82
76201;BME280;64981;52.930;9.266;2024-02-04T04:17:39;101559.41;;;6.66;81.59
76201;BME280;64981;52.930;9.266;2024-02-04T04:20:07;101550.91;;;6.51;81.90
76201;BME280;64981;52.930;9.266;2024-02-04T04:22:33;101543.13;;;6.49;82.53
76201;BME280;64981;52.930;9.266;2024-02-04T04:24:58;101553.91;;;6.69;82.02
76201;BME280;64981;52.930;9.266;2024-02-04T04:27:24;101547.25;;;6.76;81.74
76201;BME280;64981;52.930;9.266;2024-02-04T04:29:50;101551.22;;;6.81;81.02
76201;BME280;64981;52.930;9.266;2024-02-04T04:32:15;101565.28;;;6.80;81.51
76201;BME280;64981;52.930;9.266;2024-02-04T04:34:41;101563.50;;;6.81;81.30
76201;BME280;64981;52.930;9.266;2024-02-04T04:37:06;101554.75;;;6.69;81.53
76201;BME280;64981;52.930;9.266;2024-02-04T04:39:32;101560.25;;;6.77;81.45
76201;BME280;64981;52.930;9.266;2024-02-04T04:41:58;101548.94;;;6.77;81.41
76201;BME280;64981;52.930;9.266;2024-02-04T04:44:23;101550.88;;;6.97;80.91
76201;BME280;64981;52.930;9.266;2024-02-04T04:46:49;101541.44;;;6.94;79.94
76201;BME280;64981;52.930;9.266;2024-02-04T04:49:15;101551.94;;;7.05;79.85
76201;BME280;64981;52.930;9.266;2024-02-04T04:51:45;101550.28;;;7.04;80.07
76201;BME280;64981;52.930;9.266;2024-02-04T04:54:11;101542.41;;;7.04;79.46
76201;BME280;64981;52.930;9.266;2024-02-04T04:56:39;101556.59;;;7.13;78.82
76201;BME280;64981;52.930;9.266;2024-02-04T04:59:06;101551.09;;;7.16;78.45
76201;BME280;64981;52.930;9.266;2024-02-04T05:01:32;101545.94;;;7.15;78.41
76201;BME280;64981;52.930;9.266;2024-02-04T05:03:57;101536.44;;;6.91;78.80
76201;BME280;64981;52.930;9.266;2024-02-04T05:06:23;101543.13;;;6.95;78.88
76201;BME280;64981;52.930;9.266;2024-02-04T05:08:48;101545.28;;;7.01;78.53
76201;BME280;64981;52.930;9.266;2024-02-04T05:11:14;101531.66;;;6.85;78.89
76201;BME280;64981;52.930;9.266;2024-02-04T05:13:39;101533.91;;;6.90;78.25
76201;BME280;64981;52.930;9.266;2024-02-04T05:16:05;101538.34;;;7.00;77.91
76201;BME280;64981;52.930;9.266;2024-02-04T05:18:31;101528.53;;;6.91;77.37
76201;BME280;64981;52.930;9.266;2024-02-04T05:20:56;101518.69;;;6.71;78.06
76201;BME280;64981;52.930;9.266;2024-02-04T05:23:22;101521.63;;;6.79;77.68
76201;BME280;64981;52.930;9.266;2024-02-04T05:25:48;101524.97;;;6.81;77.58
76201;BME280;64981;52.930;9.266;2024-02-04T05:28:13;101536.28;;;6.93;77.23
76201;BME280;64981;52.930;9.266;2024-02-04T05:30:39;101543.47;;;6.91;77.12
76201;BME280;64981;52.930;9.266;2024-02-04T05:33:04;101536.16;;;6.83;77.33
76201;BME280;64981;52.930;9.266;2024-02-04T05:35:30;101534.25;;;6.96;76.85
76201;BME280;64981;52.930;9.266;2024-02-04T05:37:55;101523.91;;;6.95;76.53
76201;BME280;64981;52.930;9.266;2024-02-04T05:40:21;101523.41;;;7.01;76.37
76201;BME280;64981;52.930;9.266;2024-02-04T05:42:47;101514.78;;;6.99;76.10
76201;BME280;64981;52.930;9.266;2024-02-04T05:45:12;101506.34;;;6.84;76.53
76201;BME280;64981;52.930;9.266;2024-02-04T05:47:38;101508.72;;;6.87;76.65
76201;BME280;64981;52.930;9.266;2024-02-04T05:50:04;101505.63;;;6.93;76.31
76201;BME280;64981;52.930;9.266;2024-02-04T05:52:30;101499.75;;;6.90;76.26
76201;BME280;64981;52.930;9.266;2024-02-04T05:54:55;101490.22;;;7.00;75.84
76201;BME280;64981;52.930;9.266;2024-02-04T05:57:21;101490.34;;;6.98;75.68
76201;BME280;64981;52.930;9.266;2024-02-04T05:59:46;101496.31;;;6.78;76.41
76201;BME280;64981;52.930;9.266;2024-02-04T06:02:14;101476.84;;;6.81;75.95
76201;BME280;64981;52.930;9.266;2024-02-04T06:04:39;101471.84;;;6.89;75.64
76201;BME280;64981;52.930;9.266;2024-02-04T06:07:05;101469.53;;;6.62;76.60
76201;BME280;64981;52.930;9.266;2024-02-04T06:09:33;101474.91;;;6.49;77.08
76201;BME280;64981;52.930;9.266;2024-02-04T06:11:58;101485.53;;;6.59;76.85
76201;BME280;64981;52.930;9.266;2024-02-04T06:14:24;101488.03;;;6.72;76.38
76201;BME280;64981;52.930;9.266;2024-02-04T06:16:49;101471.69;;;6.68;76.34
76201;BME280;64981;52.930;9.266;2024-02-04T06:19:15;101465.84;;;6.65;76.47
76201;BME280;64981;52.930;9.266;2024-02-04T06:21:41;101467.78;;;6.74;76.23
76201;BME280;64981;52.930;9.266;2024-02-04T06:24:06;101448.78;;;6.70;75.96
76201;BME280;64981;52.930;9.266;2024-02-04T06:26:32;101454.53;;;6.64;75.88
76201;BME280;64981;52.930;9.266;2024-02-04T06:28:57;101468.34;;;6.77;75.07
76201;BME280;64981;52.930;9.266;2024-02-04T06:31:23;101462.06;;;6.80;75.48
76201;BME280;64981;52.930;9.266;2024-02-04T06:33:49;101463.63;;;6.82;75.40
76201;BME280;64981;52.930;9.266;2024-02-04T06:36:14;101474.13;;;6.82;75.51
76201;BME280;64981;52.930;9.266;2024-02-04T06:38:40;101450.94;;;6.65;75.53
76201;BME280;64981;52.930;9.266;2024-02-04T06:41:05;101465.59;;;6.68;75.97
76201;BME280;64981;52.930;9.266;2024-02-04T06:43:32;101446.28;;;6.69;75.87
76201;BME280;64981;52.930;9.266;2024-02-04T06:45:57;101444.97;;;6.74;75.48
76201;BME280;64981;52.930;9.266;2024-02-04T06:48:23;101455.22;;;6.77;75.55
76201;BME280;64981;52.930;9.266;2024-02-04T06:50:48;101465.88;;;6.87;75.57
76201;BME280;64981;52.930;9.266;2024-02-04T06:53:14;101472.69;;;6.78;76.47
76201;BME280;64981;52.930;9.266;2024-02-04T06:55:40;101469.19;;;6.67;76.79
76201;BME280;64981;52.930;9.266;2024-02-04T06:58:06;101455.59;;;6.73;77.00
76201;BME280;64981;52.930;9.266;2024-02-04T07:00:31;101441.19;;;6.78;76.77
76201;BME280;64981;52.930;9.266;2024-02-04T07:02:57;101445.69;;;6.76;76.93
76201;BME280;64981;52.930;9.266;2024-02-04T07:05:22;101441.53;;;6.74;76.90
76201;BME280;64981;52.930;9.266;2024-02-04T07:07:49;101455.22;;;6.77;77.00
76201;BME280;64981;52.930;9.266;2024-02-04T07:10:15;101451.19;;;6.73;76.84
76201;BME280;64981;52.930;9.266;2024-02-04T07:12:42;101441.16;;;6.67;77.30
76201;BME280;64981;52.930;9.266;2024-02-04T07:15:07;101433.03;;;6.70;77.04
76201;BME280;64981;52.930;9.266;2024-02-04T07:17:34;101442.00;;;6.79;77.05
76201;BME280;64981;52.930;9.266;2024-02-04T07:20:02;101452.38;;;6.80;77.03
76201;BME280;64981;52.930;9.266;2024-02-04T07:22:28;101461.00;;;6.82;77.37
76201;BME280;64981;52.930;9.266;2024-02-04T07:24:53;101460.72;;;6.96;76.79
76201;BME280;64981;52.930;9.266;2024-02-04T07:27:19;101469.94;;;7.02;76.40
76201;BME280;64981;52.930;9.266;2024-02-04T07:29:44;101449.88;;;6.90;76.49
76201;BME280;64981;52.930;9.266;2024-02-04T07:32:12;101430.44;;;6.92;76.53
76201;BME280;64981;52.930;9.266;2024-02-04T07:34:38;101456.66;;;7.03;75.84
76201;BME280;64981;52.930;9.266;2024-02-04T07:37:03;101445.94;;;6.84;76.30
76201;BME280;64981;52.930;9.266;2024-02-04T07:39:29;101438.78;;;6.97;76.00
76201;BME280;64981;52.930;9.266;2024-02-04T07:41:56;101436.25;;;7.07;75.60
76201;BME280;64981;52.930;9.266;2024-02-04T07:44:27;101452.50;;;7.01;75.48
76201;BME280;64981;52.930;9.266;2024-02-04T07:46:53;101455.44;;;7.19;75.16
76201;BME280;64981;52.930;9.266;2024-02-04T07:49:18;101433.25;;;7.11;74.77
76201;BME280;64981;52.930;9.266;2024-02-04T07:51:44;101436.84;;;7.10;75.09
76201;BME280;64981;52.930;9.266;2024-02-04T07:54:10;101437.53;;;7.13;75.02
76201;BME280;64981;52.930;9.266;2024-02-04T07:56:35;101442.56;;;7.16;74.85
76201;BME280;64981;52.930;9.266;2024-02-04T07:59:01;101448.16;;;7.22;74.56
76201;BME280;64981;52.930;9.266;2024-02-04T08:01:29;101446.38;;;7.23;74.36
76201;BME280;64981;52.930;9.266;2024-02-04T08:03:54;101429.66;;;7.13;74.42
76201;BME280;64981;52.930;9.266;2024-02-04T08:06:20;101430.75;;;7.10;74.49
76201;BME280;64981;52.930;9.266;2024-02-04T08:08:46;101426.94;;;7.14;74.68
76201;BME280;64981;52.930;9.266;2024-02-04T08:11:20;101413.50;;;7.28;74.08
76201;BME280;64981;52.930;9.266;2024-02-04T08:13:46;101419.38;;;7.21;74.40
76201;BME280;64981;52.930;9.266;2024-02-04T08:16:12;101414.44;;;7.27;73.72
76201;BME280;64981;52.930;9.266;2024-02-04T08:18:38;101422.81;;;7.32;73.49
76201;BME280;64981;52.930;9.266;2024-02-04T08:21:04;101422.72;;;7.11;74.18
76201;BME280;64981;52.930;9.266;2024-02-04T08:23:29;101426.09;;;7.14;74.16
76201;BME280;64981;52.930;9.266;2024-02-04T08:25:55;101445.19;;;7.16;74.25
76201;BME280;64981;52.930;9.266;2024-02-04T08:28:22;101446.88;;;7.05;74.23
76201;BME280;64981;52.930;9.266;2024-02-04T08:30:49;101449.72;;;7.14;74.13
76201;BME280;64981;52.930;9.266;2024-02-04T08:33:15;101448.84;;;7.24;73.78
76201;BME280;64981;52.930;9.266;2024-02-04T08:35:41;101451.47;;;7.35;72.95
76201;BME280;64981;52.930;9.266;2024-02-04T08:38:06;101455.00;;;7.14;73.66
76201;BME280;64981;52.930;9.266;2024-02-04T08:40:32;101457.91;;;7.31;73.40
76201;BME280;64981;52.930;9.266;2024-02-04T08:42:57;101455.13;;;7.44;73.35
76201;BME280;64981;52.930;9.266;2024-02-04T08:45:23;101432.69;;;7.40;73.13
76201;BME280;64981;52.930;9.266;2024-02-04T08:47:48;101460.97;;;7.47;72.78
76201;BME280;64981;52.930;9.266;2024-02-04T08:50:14;101447.50;;;7.41;72.36
76201;BME280;64981;52.930;9.266;2024-02-04T08:52:40;101453.44;;;7.43;72.40
76201;BME280;64981;52.930;9.266;2024-02-04T08:55:05;101435.81;;;7.34;72.28
76201;BME280;64981;52.930;9.266;2024-02-04T08:57:31;101447.00;;;7.47;72.22
76201;BME280;64981;52.930;9.266;2024-02-04T08:59:56;101453.69;;;7.51;72.12
76201;BME280;64981;52.930;9.266;2024-02-04T09:02:22;101449.97;;;7.53;71.67
76201;BME280;64981;52.930;9.266;2024-02-04T09:04:48;101444.91;;;7.61;70.80
76201;BME280;64981;52.930;9.266;2024-02-04T09:07:13;101446.50;;;7.53;71.46
76201;BME280;64981;52.930;9.266;2024-02-04T09:09:39;101435.28;;;7.83;70.54
76201;BME280;64981;52.930;9.266;2024-02-04T09:12:05;101443.19;;;7.72;70.58
76201;BME280;64981;52.930;9.266;2024-02-04T09:14:31;101441.22;;;7.64;71.00
76201;BME280;64981;52.930;9.266;2024-02-04T09:16:56;101451.66;;;7.54;71.80
76201;BME280;64981;52.930;9.266;2024-02-04T09:19:22;101447.50;;;7.73;70.93
76201;BME280;64981;52.930;9.266;2024-02-04T09:21:49;101449.78;;;7.66;70.76
76201;BME280;64981;52.930;9.266;2024-02-04T09:24:15;101444.09;;;7.61;70.89
76201;BME280;64981;52.930;9.266;2024-02-04T09:26:41;101435.69;;;7.67;70.81
76201;BME280;64981;52.930;9.266;2024-02-04T09:29:06;101440.31;;;7.75;69.98
76201;BME280;64981;52.930;9.266;2024-02-04T09:31:32;101455.72;;;7.79;70.37
76201;BME280;64981;52.930;9.266;2024-02-04T09:33:57;101450.47;;;7.79;70.18
76201;BME280;64981;52.930;9.266;2024-02-04T09:36:23;101457.25;;;7.61;70.33
76201;BME280;64981;52.930;9.266;2024-02-04T09:38:49;101445.75;;;7.62;70.33
76201;BME280;64981;52.930;9.266;2024-02-04T09:41:14;101441.41;;;7.72;70.33
76201;BME280;64981;52.930;9.266;2024-02-04T09:43:41;101442.84;;;7.65;70.51
76201;BME280;64981;52.930;9.266;2024-02-04T09:46:07;101444.28;;;7.90;69.44
76201;BME280;64981;52.930;9.266;2024-02-04T09:48:33;101449.63;;;7.79;69.67
76201;BME280;64981;52.930;9.266;2024-02-04T09:50:59;101436.22;;;7.82;69.84
76201;BME280;64981;52.930;9.266;2024-02-04T09:53:34;101437.81;;;7.73;69.37
76201;BME280;64981;52.930;9.266;2024-02-04T09:56:05;101434.22;;;7.74;69.46
76201;BME280;64981;52.930;9.266;2024-02-04T09:58:32;101447.06;;;7.88;69.06
76201;BME280;64981;52.930;9.266;2024-02-04T10:00:59;101430.88;;;7.72;69.70
76201;BME280;64981;52.930;9.266;2024-02-04T10:03:25;101434.28;;;7.84;69.09
76201;BME280;64981;52.930;9.266;2024-02-04T10:05:51;101421.19;;;7.52;70.14
76201;BME280;64981;52.930;9.266;2024-02-04T10:08:17;101436.16;;;7.72;69.66
76201;BME280;64981;52.930;9.266;2024-02-04T10:10:43;101433.59;;;7.82;69.22
76201;BME280;64981;52.930;9.266;2024-02-04T10:13:09;101441.66;;;7.90;69.46
76201;BME280;64981;52.930;9.266;2024-02-04T10:15:35;101430.53;;;7.77;69.59
76201;BME280;64981;52.930;9.266;2024-02-04T10:18:04;101441.56;;;7.91;69.35
76201;BME280;64981;52.930;9.266;2024-02-04T10:20:30;101429.25;;;7.92;69.37
76201;BME280;64981;52.930;9.266;2024-02-04T10:22:56;101442.25;;;7.93;69.63
76201;BME280;64981;52.930;9.266;2024-02-04T10:25:21;101426.03;;;7.88;69.52
76201;BME280;64981;52.930;9.266;2024-02-04T10:27:47;101437.75;;;7.84;69.89
76201;BME280;64981;52.930;9.266;2024-02-04T10:30:13;101423.97;;;7.92;70.04
76201;BME280;64981;52.930;9.266;2024-02-04T10:32:39;101433.28;;;7.96;70.08
76201;BME280;64981;52.930;9.266;2024-02-04T10:35:07;101430.78;;;7.94;70.33
76201;BME280;64981;52.930;9.266;2024-02-04T10:37:33;101414.81;;;7.86;70.03
76201;BME280;64981;52.930;9.266;2024-02-04T10:39:58;101411.78;;;7.91;70.35
76201;BME280;64981;52.930;9.266;2024-02-04T10:42:26;101420.22;;;8.15;69.75
76201;BME280;64981;52.930;9.266;2024-02-04T10:44:53;101407.28;;;8.02;69.83
76201;BME280;64981;52.930;9.266;2024-02-04T10:47:22;101413.84;;;8.08;69.58
76201;BME280;64981;52.930;9.266;2024-02-04T10:49:51;101398.81;;;8.19;69.78
76201;BME280;64981;52.930;9.266;2024-02-04T10:52:19;101392.31;;;8.24;69.70
76201;BME280;64981;52.930;9.266;2024-02-04T10:54:46;101395.34;;;8.59;68.89
76201;BME280;64981;52.930;9.266;2024-02-04T10:57:20;101397.41;;;8.46;68.87
76201;BME280;64981;52.930;9.266;2024-02-04T10:59:47;101383.69;;;8.82;67.89
76201;BME280;64981;52.930;9.266;2024-02-04T11:02:15;101389.56;;;8.95;66.84
76201;BME280;64981;52.930;9.266;2024-02-04T11:04:42;101393.69;;;8.88;67.33
76201;BME280;64981;52.930;9.266;2024-02-04T11:07:10;101372.78;;;8.87;67.14
76201;BME280;64981;52.930;9.266;2024-02-04T11:09:36;101388.19;;;9.10;66.20
76201;BME280;64981;52.930;9.266;2024-02-04T11:12:08;101372.50;;;9.18;65.87
76201;BME280;64981;52.930;9.266;2024-02-04T11:14:40;101377.94;;;9.27;64.75
76201;BME280;64981;52.930;9.266;2024-02-04T11:20:22;101370.88;;;9.37;64.63
76201;BME280;64981;52.930;9.266;2024-02-04T11:25:51;101382.38;;;9.36;64.93
76201;BME280;64981;52.930;9.266;2024-02-04T11:28:20;101383.63;;;9.32;64.86
76201;BME280;64981;52.930;9.266;2024-02-04T11:30:47;101381.25;;;9.19;64.61
76201;BME280;64981;52.930;9.266;2024-02-04T11:33:19;101356.84;;;9.36;64.51
76201;BME280;64981;52.930;9.266;2024-02-04T11:35:45;101374.19;;;9.19;65.08
76201;BME280;64981;52.930;9.266;2024-02-04T11:38:11;101369.06;;;9.18;64.94
76201;BME280;64981;52.930;9.266;2024-02-04T11:40:39;101378.16;;;8.85;66.17
76201;BME280;64981;52.930;9.266;2024-02-04T11:43:10;101369.56;;;8.83;66.32
76201;BME280;64981;52.930;9.266;2024-02-04T11:45:41;101376.94;;;8.99;65.83
76201;BME280;64981;52.930;9.266;2024-02-04T11:48:09;101373.22;;;9.11;65.68
76201;BME280;64981;52.930;9.266;2024-02-04T11:50:36;101388.59;;;9.15;65.41
76201;BME280;64981;52.930;9.266;2024-02-04T11:53:08;101371.41;;;9.02;66.23
76201;BME280;64981;52.930;9.266;2024-02-04T11:55:35;101357.50;;;8.90;65.07
76201;BME280;64981;52.930;9.266;2024-02-04T11:58:01;101355.84;;;8.89;65.46
76201;BME280;64981;52.930;9.266;2024-02-04T12:00:27;101366.41;;;8.99;65.85
76201;BME280;64981;52.930;9.266;2024-02-04T12:03:03;101370.69;;;9.09;65.79
76201;BME280;64981;52.930;9.266;2024-02-04T12:05:31;101354.06;;;9.18;64.67
76201;BME280;64981;52.930;9.266;2024-02-04T12:08:01;101369.31;;;8.96;65.89
76201;BME280;64981;52.930;9.266;2024-02-04T12:10:29;101359.47;;;8.98;65.85
76201;BME280;64981;52.930;9.266;2024-02-04T12:12:56;101360.88;;;9.02;66.12
76201;BME280;64981;52.930;9.266;2024-02-04T12:15:22;101356.16;;;9.15;65.16
76201;BME280;64981;52.930;9.266;2024-02-04T12:17:48;101359.75;;;9.04;65.49
76201;BME280;64981;52.930;9.266;2024-02-04T12:20:13;101354.47;;;8.95;65.77
76201;BME280;64981;52.930;9.266;2024-02-04T12:22:39;101361.13;;;8.99;65.11
76201;BME280;64981;52.930;9.266;2024-02-04T12:25:05;101369.31;;;8.96;65.35
76201;BME280;64981;52.930;9.266;2024-02-04T12:27:31;101374.16;;;9.00;65.91
76201;BME280;64981;52.930;9.266;2024-02-04T12:29:58;101367.78;;;9.12;65.49
76201;BME280;64981;52.930;9.266;2024-02-04T12:32:24;101352.41;;;8.98;65.51
76201;BME280;64981;52.930;9.266;2024-02-04T12:34:50;101350.16;;;8.94;65.34
76201;BME280;64981;52.930;9.266;2024-02-04T12:37:19;101363.47;;;8.92;65.86
76201;BME280;64981;52.930;9.266;2024-02-04T12:39:46;101353.88;;;8.82;65.37
76201;BME280;64981;52.930;9.266;2024-02-04T12:42:16;101343.63;;;8.79;65.49
76201;BME280;64981;52.930;9.266;2024-02-04T12:44:48;101359.06;;;9.02;65.65
76201;BME280;64981;52.930;9.266;2024-02-04T12:47:14;101359.44;;;8.88;66.04
76201;BME280;64981;52.930;9.266;2024-02-04T12:49:44;101343.25;;;8.93;66.10
76201;BME280;64981;52.930;9.266;2024-02-04T12:52:09;101337.72;;;9.15;65.37
76201;BME280;64981;52.930;9.266;2024-02-04T12:54:45;101340.06;;;8.99;65.31
76201;BME280;64981;52.930;9.266;2024-02-04T12:57:22;101346.97;;;9.00;65.47
76201;BME280;64981;52.930;9.266;2024-02-04T12:59:48;101339.78;;;8.92;65.74
76201;BME280;64981;52.930;9.266;2024-02-04T13:02:14;101338.94;;;9.01;65.61
76201;BME280;64981;52.930;9.266;2024-02-04T13:04:42;101317.88;;;9.01;65.26
76201;BME280;64981;52.930;9.266;2024-02-04T13:07:10;101332.44;;;9.15;65.43
76201;BME280;64981;52.930;9.266;2024-02-04T13:09:36;101335.06;;;9.24;65.40